sensor_id;sensor_type;location;lat;lon;timestamp;P1;durP1;ratioP1;P2;durP2;ratioP2
12725;SDS011;6427;49.754;6.106;2023-11-19T00:01:28;1.77;;;0.30;;
12725;SDS011;6427;49.754;6.106;2023-11-19T00:03:57;0.67;;;0.20;;
12725;SDS011;6427;49.754;6.106;2023-11-19T00:06:25;0.50;;;0.30;;
12725;SDS011;6427;49.754;6.106;2023-11-19T00:08:52;1.37;;;0.60;;
12725;SDS011;6427;49.754;6.106;2023-11-19T00:11:20;0.47;;;0.30;;
12725;SDS011;6427;49.754;6.106;2023-11-19T00:13:48;0.63;;;0.43;;
12725;SDS011;6427;49.754;6.106;2023-11-19T00:16:16;0.43;;;0.30;;
12725;SDS011;6427;49.754;6.106;2023-11-19T00:18:44;0.97;;;0.30;;
12725;SDS011;6427;49.754;6.106;2023-11-19T00:21:11;1.27;;;0.20;;
12725;SDS011;6427;49.754;6.106;2023-11-19T00:23:40;0.37;;;0.30;;
12725;SDS011;6427;49.754;6.106;2023-11-19T00:26:07;0.20;;;0.20;;
12725;SDS011;6427;49.754;6.106;2023-11-19T00:28:35;0.70;;;0.40;;
12725;SDS011;6427;49.754;6.106;2023-11-19T00:31:02;0.53;;;0.30;;
12725;SDS011;6427;49.754;6.106;2023-11-19T00:33:30;0.97;;;0.60;;
12725;SDS011;6427;49.754;6.106;2023-11-19T00:35:58;0.60;;;0.50;;
12725;SDS011;6427;49.754;6.106;2023-11-19T00:38:26;2.23;;;1.80;;
12725;SDS011;6427;49.754;6.106;2023-11-19T00:40:53;1.97;;;0.60;;
12725;SDS011;6427;49.754;6.106;2023-11-19T00:43:22;1.00;;;0.80;;
12725;SDS011;6427;49.754;6.106;2023-11-19T00:45:49;0.70;;;0.50;;
12725;SDS011;6427;49.754;6.106;2023-11-19T00:48:17;0.43;;;0.20;;
12725;SDS011;6427;49.754;6.106;2023-11-19T00:50:45;1.10;;;0.30;;
12725;SDS011;6427;49.754;6.106;2023-11-19T00:53:12;1.40;;;0.53;;
12725;SDS011;6427;49.754;6.106;2023-11-19T00:55:40;0.40;;;0.20;;
12725;SDS011;6427;49.754;6.106;2023-11-19T00:58:07;0.30;;;0.20;;
12725;SDS011;6427;49.754;6.106;2023-11-19T01:00:35;0.13;;;0.10;;
12725;SDS011;6427;49.754;6.106;2023-11-19T01:03:03;0.50;;;0.20;;
12725;SDS011;6427;49.754;6.106;2023-11-19T01:05:30;0.37;;;0.10;;
12725;SDS011;6427;49.754;6.106;2023-11-19T01:07:58;1.17;;;0.20;;
12725;SDS011;6427;49.754;6.106;2023-11-19T01:10:25;0.30;;;0.23;;
12725;SDS011;6427;49.754;6.106;2023-11-19T01:12:53;0.73;;;0.40;;
12725;SDS011;6427;49.754;6.106;2023-11-19T01:15:21;0.40;;;0.23;;
12725;SDS011;6427;49.754;6.106;2023-11-19T01:17:49;0.40;;;0.33;;
12725;SDS011;6427;49.754;6.106;2023-11-19T01:20:17;1.43;;;0.40;;
12725;SDS011;6427;49.754;6.106;2023-11-19T01:22:45;0.20;;;0.20;;
12725;SDS011;6427;49.754;6.106;2023-11-19T01:25:12;0.65;;;0.30;;
12725;SDS011;6427;49.754;6.106;2023-11-19T01:27:40;1.05;;;0.30;;
12725;SDS011;6427;49.754;6.106;2023-11-19T01:30:08;0.27;;;0.20;;
12725;SDS011;6427;49.754;6.106;2023-11-19T01:32:39;0.30;;;0.30;;
12725;SDS011;6427;49.754;6.106;2023-11-19T01:35:06;0.20;;;0.20;;
12725;SDS011;6427;49.754;6.106;2023-11-19T01:37:34;1.70;;;0.50;;
12725;SDS011;6427;49.754;6.106;2023-11-19T01:40:02;0.30;;;0.30;;
12725;SDS011;6427;49.754;6.106;2023-11-19T01:42:29;0.33;;;0.30;;
12725;SDS011;6427;49.754;6.106;2023-11-19T01:44:59;0.43;;;0.43;;
12725;SDS011;6427;49.754;6.106;2023-11-19T01:47:27;0.60;;;0.50;;
12725;SDS011;6427;49.754;6.106;2023-11-19T01:49:55;1.30;;;0.70;;
12725;SDS011;6427;49.754;6.106;2023-11-19T01:52:22;2.83;;;0.88;;
12725;SDS011;6427;49.754;6.106;2023-11-19T01:54:50;1.10;;;0.90;;
12725;SDS011;6427;49.754;6.106;2023-11-19T01:57:18;1.90;;;0.90;;
12725;SDS011;6427;49.754;6.106;2023-11-19T01:59:46;1.27;;;1.00;;
12725;SDS011;6427;49.754;6.106;2023-11-19T02:02:13;1.27;;;0.80;;
12725;SDS011;6427;49.754;6.106;2023-11-19T02:04:41;1.50;;;1.30;;
12725;SDS011;6427;49.754;6.106;2023-11-19T02:07:08;3.33;;;1.40;;
12725;SDS011;6427;49.754;6.106;2023-11-19T02:09:36;3.17;;;1.10;;
12725;SDS011;6427;49.754;6.106;2023-11-19T02:12:04;1.03;;;1.00;;
12725;SDS011;6427;49.754;6.106;2023-11-19T02:14:31;1.37;;;1.03;;
12725;SDS011;6427;49.754;6.106;2023-11-19T02:16:59;1.93;;;0.90;;
12725;SDS011;6427;49.754;6.106;2023-11-19T02:19:26;2.53;;;1.10;;
12725;SDS011;6427;49.754;6.106;2023-11-19T02:21:54;1.50;;;1.00;;
12725;SDS011;6427;49.754;6.106;2023-11-19T02:24:22;1.00;;;0.77;;
12725;SDS011;6427;49.754;6.106;2023-11-19T02:29:22;1.77;;;1.27;;
12725;SDS011;6427;49.754;6.106;2023-11-19T02:31:50;2.00;;;1.60;;
12725;SDS011;6427;49.754;6.106;2023-11-19T02:34:17;1.80;;;1.40;;
12725;SDS011;6427;49.754;6.106;2023-11-19T02:36:45;1.50;;;1.40;;
12725;SDS011;6427;49.754;6.106;2023-11-19T02:39:13;1.80;;;1.10;;
12725;SDS011;6427;49.754;6.106;2023-11-19T02:41:40;2.77;;;1.03;;
12725;SDS011;6427;49.754;6.106;2023-11-19T02:44:08;1.87;;;0.90;;
12725;SDS011;6427;49.754;6.106;2023-11-19T02:46:35;1.83;;;0.97;;
12725;SDS011;6427;49.754;6.106;2023-11-19T02:49:04;0.73;;;0.73;;
12725;SDS011;6427;49.754;6.106;2023-11-19T02:51:31;0.60;;;0.60;;
12725;SDS011;6427;49.754;6.106;2023-11-19T02:53:59;1.47;;;0.87;;
12725;SDS011;6427;49.754;6.106;2023-11-19T02:56:27;0.83;;;0.73;;
12725;SDS011;6427;49.754;6.106;2023-11-19T02:58:54;1.23;;;0.70;;
12725;SDS011;6427;49.754;6.106;2023-11-19T03:01:22;1.73;;;0.90;;
12725;SDS011;6427;49.754;6.106;2023-11-19T03:03:52;1.03;;;0.90;;
12725;SDS011;6427;49.754;6.106;2023-11-19T03:06:20;2.40;;;0.80;;
12725;SDS011;6427;49.754;6.106;2023-11-19T03:08:48;0.80;;;0.80;;
12725;SDS011;6427;49.754;6.106;2023-11-19T03:11:15;1.60;;;0.80;;
12725;SDS011;6427;49.754;6.106;2023-11-19T03:13:43;0.87;;;0.80;;
12725;SDS011;6427;49.754;6.106;2023-11-19T03:16:11;2.57;;;0.60;;
12725;SDS011;6427;49.754;6.106;2023-11-19T03:18:38;1.37;;;0.60;;
12725;SDS011;6427;49.754;6.106;2023-11-19T03:21:07;0.57;;;0.57;;
12725;SDS011;6427;49.754;6.106;2023-11-19T03:23:37;0.40;;;0.40;;
12725;SDS011;6427;49.754;6.106;2023-11-19T03:26:04;1.07;;;0.70;;
12725;SDS011;6427;49.754;6.106;2023-11-19T03:28:32;0.93;;;0.60;;
12725;SDS011;6427;49.754;6.106;2023-11-19T03:31:00;1.20;;;0.77;;
12725;SDS011;6427;49.754;6.106;2023-11-19T03:33:28;3.03;;;1.10;;
12725;SDS011;6427;49.754;6.106;2023-11-19T03:35:56;2.10;;;0.90;;
12725;SDS011;6427;49.754;6.106;2023-11-19T03:38:24;3.27;;;0.77;;
12725;SDS011;6427;49.754;6.106;2023-11-19T03:40:52;4.17;;;1.07;;
12725;SDS011;6427;49.754;6.106;2023-11-19T03:43:20;2.80;;;1.00;;
12725;SDS011;6427;49.754;6.106;2023-11-19T03:45:47;2.30;;;1.20;;
12725;SDS011;6427;49.754;6.106;2023-11-19T03:48:15;2.67;;;1.63;;
12725;SDS011;6427;49.754;6.106;2023-11-19T03:50:45;3.23;;;1.67;;
12725;SDS011;6427;49.754;6.106;2023-11-19T03:53:13;2.50;;;1.67;;
12725;SDS011;6427;49.754;6.106;2023-11-19T03:55:41;3.87;;;1.70;;
12725;SDS011;6427;49.754;6.106;2023-11-19T03:58:09;5.87;;;1.50;;
12725;SDS011;6427;49.754;6.106;2023-11-19T04:00:36;5.37;;;1.80;;
12725;SDS011;6427;49.754;6.106;2023-11-19T04:03:04;4.30;;;1.47;;
12725;SDS011;6427;49.754;6.106;2023-11-19T04:05:31;4.27;;;1.50;;
12725;SDS011;6427;49.754;6.106;2023-11-19T04:07:59;3.53;;;1.80;;
12725;SDS011;6427;49.754;6.106;2023-11-19T04:10:27;3.53;;;1.50;;
12725;SDS011;6427;49.754;6.106;2023-11-19T04:12:54;3.87;;;1.60;;
12725;SDS011;6427;49.754;6.106;2023-11-19T04:15:22;2.63;;;1.50;;
12725;SDS011;6427;49.754;6.106;2023-11-19T04:17:49;5.70;;;1.43;;
12725;SDS011;6427;49.754;6.106;2023-11-19T04:20:17;2.93;;;1.47;;
12725;SDS011;6427;49.754;6.106;2023-11-19T04:22:44;2.20;;;1.33;;
12725;SDS011;6427;49.754;6.106;2023-11-19T04:25:12;4.43;;;1.37;;
12725;SDS011;6427;49.754;6.106;2023-11-19T04:27:40;1.13;;;0.90;;
12725;SDS011;6427;49.754;6.106;2023-11-19T04:30:07;2.90;;;1.00;;
12725;SDS011;6427;49.754;6.106;2023-11-19T04:32:35;2.80;;;0.80;;
12725;SDS011;6427;49.754;6.106;2023-11-19T04:35:03;1.70;;;0.70;;
12725;SDS011;6427;49.754;6.106;2023-11-19T04:37:31;0.77;;;0.57;;
12725;SDS011;6427;49.754;6.106;2023-11-19T04:39:59;3.23;;;0.90;;
12725;SDS011;6427;49.754;6.106;2023-11-19T04:42:27;1.00;;;0.57;;
12725;SDS011;6427;49.754;6.106;2023-11-19T04:44:54;1.43;;;0.73;;
12725;SDS011;6427;49.754;6.106;2023-11-19T04:47:22;1.50;;;0.60;;
12725;SDS011;6427;49.754;6.106;2023-11-19T04:49:49;1.57;;;0.70;;
12725;SDS011;6427;49.754;6.106;2023-11-19T04:52:17;3.37;;;0.70;;
12725;SDS011;6427;49.754;6.106;2023-11-19T04:54:45;3.13;;;0.70;;
12725;SDS011;6427;49.754;6.106;2023-11-19T04:57:12;2.07;;;0.63;;
12725;SDS011;6427;49.754;6.106;2023-11-19T04:59:40;2.60;;;0.60;;
12725;SDS011;6427;49.754;6.106;2023-11-19T05:02:08;2.20;;;0.60;;
12725;SDS011;6427;49.754;6.106;2023-11-19T05:04:35;3.27;;;0.80;;
12725;SDS011;6427;49.754;6.106;2023-11-19T05:07:03;2.53;;;0.93;;
12725;SDS011;6427;49.754;6.106;2023-11-19T05:09:32;3.03;;;0.80;;
12725;SDS011;6427;49.754;6.106;2023-11-19T05:11:59;0.90;;;0.73;;
12725;SDS011;6427;49.754;6.106;2023-11-19T05:14:27;2.87;;;0.97;;
12725;SDS011;6427;49.754;6.106;2023-11-19T05:16:55;4.67;;;1.13;;
12725;SDS011;6427;49.754;6.106;2023-11-19T05:19:23;4.00;;;1.00;;
12725;SDS011;6427;49.754;6.106;2023-11-19T05:21:50;2.10;;;0.93;;
12725;SDS011;6427;49.754;6.106;2023-11-19T05:24:19;3.27;;;0.90;;
12725;SDS011;6427;49.754;6.106;2023-11-19T05:26:46;4.60;;;1.00;;
12725;SDS011;6427;49.754;6.106;2023-11-19T05:29:14;10.33;;;1.07;;
12725;SDS011;6427;49.754;6.106;2023-11-19T05:31:42;4.03;;;1.20;;
12725;SDS011;6427;49.754;6.106;2023-11-19T05:34:09;5.20;;;1.57;;
12725;SDS011;6427;49.754;6.106;2023-11-19T05:36:37;4.93;;;1.40;;
12725;SDS011;6427;49.754;6.106;2023-11-19T05:39:05;4.20;;;1.23;;
12725;SDS011;6427;49.754;6.106;2023-11-19T05:41:33;4.03;;;1.13;;
12725;SDS011;6427;49.754;6.106;2023-11-19T05:44:00;4.90;;;1.10;;
12725;SDS011;6427;49.754;6.106;2023-11-19T05:46:28;5.17;;;1.20;;
12725;SDS011;6427;49.754;6.106;2023-11-19T05:48:55;6.07;;;1.07;;
12725;SDS011;6427;49.754;6.106;2023-11-19T05:51:23;3.03;;;1.27;;
12725;SDS011;6427;49.754;6.106;2023-11-19T05:53:51;10.17;;;1.30;;
12725;SDS011;6427;49.754;6.106;2023-11-19T05:56:18;4.87;;;1.23;;
12725;SDS011;6427;49.754;6.106;2023-11-19T05:58:46;6.43;;;1.13;;
12725;SDS011;6427;49.754;6.106;2023-11-19T06:01:13;6.43;;;1.00;;
12725;SDS011;6427;49.754;6.106;2023-11-19T06:03:41;6.20;;;1.27;;
12725;SDS011;6427;49.754;6.106;2023-11-19T06:06:08;3.90;;;1.10;;
12725;SDS011;6427;49.754;6.106;2023-11-19T06:08:36;2.53;;;1.27;;
12725;SDS011;6427;49.754;6.106;2023-11-19T06:11:04;5.07;;;1.47;;
12725;SDS011;6427;49.754;6.106;2023-11-19T06:13:31;6.80;;;1.40;;
12725;SDS011;6427;49.754;6.106;2023-11-19T06:16:00;4.47;;;1.73;;
12725;SDS011;6427;49.754;6.106;2023-11-19T06:18:27;5.00;;;1.27;;
12725;SDS011;6427;49.754;6.106;2023-11-19T06:20:55;5.80;;;1.30;;
12725;SDS011;6427;49.754;6.106;2023-11-19T06:23:22;7.30;;;1.77;;
12725;SDS011;6427;49.754;6.106;2023-11-19T06:25:50;6.63;;;1.40;;
12725;SDS011;6427;49.754;6.106;2023-11-19T06:28:18;5.47;;;1.50;;
12725;SDS011;6427;49.754;6.106;2023-11-19T06:30:45;5.68;;;1.65;;
12725;SDS011;6427;49.754;6.106;2023-11-19T06:33:13;4.70;;;1.00;;
12725;SDS011;6427;49.754;6.106;2023-11-19T06:35:40;4.07;;;1.10;;
12725;SDS011;6427;49.754;6.106;2023-11-19T06:38:08;3.90;;;1.17;;
12725;SDS011;6427;49.754;6.106;2023-11-19T06:40:36;6.67;;;1.53;;
12725;SDS011;6427;49.754;6.106;2023-11-19T06:43:04;5.17;;;1.17;;
12725;SDS011;6427;49.754;6.106;2023-11-19T06:45:32;3.57;;;0.90;;
12725;SDS011;6427;49.754;6.106;2023-11-19T06:48:05;5.13;;;1.20;;
12725;SDS011;6427;49.754;6.106;2023-11-19T06:50:32;3.27;;;1.33;;
12725;SDS011;6427;49.754;6.106;2023-11-19T06:53:00;5.43;;;1.30;;
12725;SDS011;6427;49.754;6.106;2023-11-19T06:55:28;3.87;;;0.80;;
12725;SDS011;6427;49.754;6.106;2023-11-19T06:57:55;5.17;;;1.10;;
12725;SDS011;6427;49.754;6.106;2023-11-19T07:00:23;5.37;;;1.50;;
12725;SDS011;6427;49.754;6.106;2023-11-19T07:02:50;6.90;;;0.90;;
12725;SDS011;6427;49.754;6.106;2023-11-19T07:05:18;2.97;;;1.00;;
12725;SDS011;6427;49.754;6.106;2023-11-19T07:07:46;4.43;;;1.10;;
12725;SDS011;6427;49.754;6.106;2023-11-19T07:10:14;8.53;;;1.20;;
12725;SDS011;6427;49.754;6.106;2023-11-19T07:12:41;4.83;;;1.20;;
12725;SDS011;6427;49.754;6.106;2023-11-19T07:15:09;6.15;;;1.30;;
12725;SDS011;6427;49.754;6.106;2023-11-19T07:17:38;3.23;;;1.10;;
12725;SDS011;6427;49.754;6.106;2023-11-19T07:20:04;7.33;;;1.57;;
12725;SDS011;6427;49.754;6.106;2023-11-19T07:22:32;6.62;;;1.55;;
12725;SDS011;6427;49.754;6.106;2023-11-19T07:24:59;4.80;;;1.23;;
12725;SDS011;6427;49.754;6.106;2023-11-19T07:27:27;5.33;;;1.90;;
12725;SDS011;6427;49.754;6.106;2023-11-19T07:29:55;6.70;;;1.47;;
12725;SDS011;6427;49.754;6.106;2023-11-19T07:32:22;4.70;;;1.03;;
12725;SDS011;6427;49.754;6.106;2023-11-19T07:34:50;3.67;;;1.37;;
12725;SDS011;6427;49.754;6.106;2023-11-19T07:37:18;5.17;;;1.10;;
12725;SDS011;6427;49.754;6.106;2023-11-19T07:39:46;4.43;;;1.13;;
12725;SDS011;6427;49.754;6.106;2023-11-19T07:42:13;5.87;;;1.20;;
12725;SDS011;6427;49.754;6.106;2023-11-19T07:44:41;5.70;;;1.33;;
12725;SDS011;6427;49.754;6.106;2023-11-19T07:47:08;4.43;;;1.83;;
12725;SDS011;6427;49.754;6.106;2023-11-19T07:49:36;4.07;;;1.40;;
12725;SDS011;6427;49.754;6.106;2023-11-19T07:52:04;9.00;;;2.10;;
12725;SDS011;6427;49.754;6.106;2023-11-19T07:54:32;6.47;;;1.93;;
12725;SDS011;6427;49.754;6.106;2023-11-19T07:57:00;7.90;;;2.35;;
12725;SDS011;6427;49.754;6.106;2023-11-19T07:59:27;7.10;;;2.05;;
12725;SDS011;6427;49.754;6.106;2023-11-19T08:01:55;6.10;;;1.13;;
12725;SDS011;6427;49.754;6.106;2023-11-19T08:04:22;7.20;;;1.53;;
12725;SDS011;6427;49.754;6.106;2023-11-19T08:06:50;3.37;;;1.13;;
12725;SDS011;6427;49.754;6.106;2023-11-19T08:09:18;6.03;;;1.13;;
12725;SDS011;6427;49.754;6.106;2023-11-19T08:11:46;6.97;;;1.40;;
12725;SDS011;6427;49.754;6.106;2023-11-19T08:14:13;5.73;;;1.00;;
12725;SDS011;6427;49.754;6.106;2023-11-19T08:16:41;5.57;;;1.83;;
12725;SDS011;6427;49.754;6.106;2023-11-19T08:19:09;10.37;;;5.10;;
12725;SDS011;6427;49.754;6.106;2023-11-19T08:21:36;17.13;;;9.97;;
12725;SDS011;6427;49.754;6.106;2023-11-19T08:24:04;13.87;;;8.43;;
12725;SDS011;6427;49.754;6.106;2023-11-19T08:26:31;12.13;;;7.10;;
12725;SDS011;6427;49.754;6.106;2023-11-19T08:29:00;16.83;;;9.50;;
12725;SDS011;6427;49.754;6.106;2023-11-19T08:31:27;13.30;;;4.77;;
12725;SDS011;6427;49.754;6.106;2023-11-19T08:33:55;10.05;;;4.28;;
12725;SDS011;6427;49.754;6.106;2023-11-19T08:36:23;21.50;;;13.43;;
12725;SDS011;6427;49.754;6.106;2023-11-19T08:38:50;21.37;;;7.70;;
12725;SDS011;6427;49.754;6.106;2023-11-19T08:41:18;12.53;;;6.77;;
12725;SDS011;6427;49.754;6.106;2023-11-19T08:43:46;19.57;;;8.60;;
12725;SDS011;6427;49.754;6.106;2023-11-19T08:46:13;7.47;;;2.87;;
12725;SDS011;6427;49.754;6.106;2023-11-19T08:48:41;8.23;;;4.33;;
12725;SDS011;6427;49.754;6.106;2023-11-19T08:51:09;27.23;;;10.83;;
12725;SDS011;6427;49.754;6.106;2023-11-19T08:53:38;9.23;;;3.20;;
12725;SDS011;6427;49.754;6.106;2023-11-19T08:56:05;6.77;;;2.70;;
12725;SDS011;6427;49.754;6.106;2023-11-19T08:58:33;18.97;;;5.80;;
12725;SDS011;6427;49.754;6.106;2023-11-19T09:01:00;6.30;;;2.10;;
12725;SDS011;6427;49.754;6.106;2023-11-19T09:03:30;10.77;;;4.83;;
12725;SDS011;6427;49.754;6.106;2023-11-19T09:05:56;8.20;;;1.73;;
12725;SDS011;6427;49.754;6.106;2023-11-19T09:08:23;6.07;;;1.10;;
12725;SDS011;6427;49.754;6.106;2023-11-19T09:10:51;8.33;;;2.40;;
12725;SDS011;6427;49.754;6.106;2023-11-19T09:13:19;9.83;;;1.70;;
12725;SDS011;6427;49.754;6.106;2023-11-19T09:15:47;6.37;;;1.60;;
12725;SDS011;6427;49.754;6.106;2023-11-19T09:18:15;10.27;;;2.30;;
12725;SDS011;6427;49.754;6.106;2023-11-19T09:20:42;13.32;;;1.80;;
12725;SDS011;6427;49.754;6.106;2023-11-19T09:23:11;7.60;;;1.70;;
12725;SDS011;6427;49.754;6.106;2023-11-19T09:25:38;8.57;;;1.73;;
12725;SDS011;6427;49.754;6.106;2023-11-19T09:28:07;11.32;;;3.00;;
12725;SDS011;6427;49.754;6.106;2023-11-19T09:30:34;11.10;;;1.83;;
12725;SDS011;6427;49.754;6.106;2023-11-19T09:33:02;7.80;;;1.60;;
12725;SDS011;6427;49.754;6.106;2023-11-19T09:35:29;14.40;;;2.27;;
12725;SDS011;6427;49.754;6.106;2023-11-19T09:37:58;10.87;;;1.83;;
12725;SDS011;6427;49.754;6.106;2023-11-19T09:40:26;12.87;;;1.90;;
12725;SDS011;6427;49.754;6.106;2023-11-19T09:42:54;11.57;;;1.50;;
12725;SDS011;6427;49.754;6.106;2023-11-19T09:45:21;10.70;;;1.70;;
12725;SDS011;6427;49.754;6.106;2023-11-19T09:47:49;10.97;;;2.00;;
12725;SDS011;6427;49.754;6.106;2023-11-19T09:50:18;10.57;;;2.15;;
12725;SDS011;6427;49.754;6.106;2023-11-19T09:52:46;12.60;;;2.30;;
12725;SDS011;6427;49.754;6.106;2023-11-19T09:55:15;11.57;;;2.43;;
12725;SDS011;6427;49.754;6.106;2023-11-19T09:57:43;16.10;;;2.53;;
12725;SDS011;6427;49.754;6.106;2023-11-19T10:00:11;8.47;;;1.63;;
12725;SDS011;6427;49.754;6.106;2023-11-19T10:02:38;12.17;;;2.03;;
12725;SDS011;6427;49.754;6.106;2023-11-19T10:05:06;9.77;;;2.00;;
12725;SDS011;6427;49.754;6.106;2023-11-19T10:07:34;8.53;;;1.47;;
12725;SDS011;6427;49.754;6.106;2023-11-19T10:10:04;10.07;;;2.07;;
12725;SDS011;6427;49.754;6.106;2023-11-19T10:12:32;9.67;;;2.30;;
12725;SDS011;6427;49.754;6.106;2023-11-19T10:14:59;11.03;;;2.57;;
12725;SDS011;6427;49.754;6.106;2023-11-19T10:17:33;11.82;;;2.25;;
12725;SDS011;6427;49.754;6.106;2023-11-19T10:20:01;9.73;;;1.80;;
12725;SDS011;6427;49.754;6.106;2023-11-19T10:22:28;12.73;;;2.00;;
12725;SDS011;6427;49.754;6.106;2023-11-19T10:24:56;13.63;;;2.00;;
12725;SDS011;6427;49.754;6.106;2023-11-19T10:27:24;9.57;;;2.03;;
12725;SDS011;6427;49.754;6.106;2023-11-19T10:29:51;10.97;;;2.10;;
12725;SDS011;6427;49.754;6.106;2023-11-19T10:32:19;12.77;;;2.00;;
12725;SDS011;6427;49.754;6.106;2023-11-19T10:34:47;12.48;;;2.95;;
12725;SDS011;6427;49.754;6.106;2023-11-19T10:37:29;6.83;;;2.17;;
12725;SDS011;6427;49.754;6.106;2023-11-19T10:39:58;8.90;;;2.22;;
12725;SDS011;6427;49.754;6.106;2023-11-19T10:42:25;12.27;;;2.00;;
12725;SDS011;6427;49.754;6.106;2023-11-19T10:44:53;10.07;;;1.47;;
12725;SDS011;6427;49.754;6.106;2023-11-19T10:47:21;14.07;;;2.50;;
12725;SDS011;6427;49.754;6.106;2023-11-19T10:49:48;11.83;;;2.50;;
12725;SDS011;6427;49.754;6.106;2023-11-19T10:52:17;11.63;;;2.30;;
12725;SDS011;6427;49.754;6.106;2023-11-19T10:54:50;13.63;;;2.77;;
12725;SDS011;6427;49.754;6.106;2023-11-19T10:57:19;11.50;;;2.00;;
12725;SDS011;6427;49.754;6.106;2023-11-19T10:59:49;9.23;;;1.63;;
12725;SDS011;6427;49.754;6.106;2023-11-19T11:02:16;9.80;;;2.12;;
12725;SDS011;6427;49.754;6.106;2023-11-19T11:04:43;8.20;;;1.90;;
12725;SDS011;6427;49.754;6.106;2023-11-19T11:07:12;10.80;;;1.83;;
12725;SDS011;6427;49.754;6.106;2023-11-19T11:09:39;18.17;;;2.30;;
12725;SDS011;6427;49.754;6.106;2023-11-19T11:12:07;10.13;;;1.93;;
12725;SDS011;6427;49.754;6.106;2023-11-19T11:14:35;14.40;;;2.40;;
12725;SDS011;6427;49.754;6.106;2023-11-19T11:17:02;9.43;;;2.13;;
12725;SDS011;6427;49.754;6.106;2023-11-19T11:19:30;11.67;;;1.80;;
12725;SDS011;6427;49.754;6.106;2023-11-19T11:21:57;13.45;;;3.25;;
12725;SDS011;6427;49.754;6.106;2023-11-19T11:24:31;12.60;;;2.67;;
12725;SDS011;6427;49.754;6.106;2023-11-19T11:30:01;14.63;;;2.70;;
12725;SDS011;6427;49.754;6.106;2023-11-19T11:35:42;9.40;;;2.23;;
12725;SDS011;6427;49.754;6.106;2023-11-19T11:38:11;12.97;;;2.37;;
12725;SDS011;6427;49.754;6.106;2023-11-19T11:40:38;11.18;;;2.35;;
12725;SDS011;6427;49.754;6.106;2023-11-19T11:43:43;8.60;;;2.47;;
12725;SDS011;6427;49.754;6.106;2023-11-19T11:45:39;11.80;;;2.67;;
12725;SDS011;6427;49.754;6.106;2023-11-19T11:48:10;10.40;;;2.00;;
12725;SDS011;6427;49.754;6.106;2023-11-19T11:53:17;8.97;;;2.13;;
12725;SDS011;6427;49.754;6.106;2023-11-19T11:58:18;11.80;;;2.03;;
12725;SDS011;6427;49.754;6.106;2023-11-19T12:00:45;10.60;;;1.80;;
12725;SDS011;6427;49.754;6.106;2023-11-19T12:03:13;10.23;;;1.60;;
12725;SDS011;6427;49.754;6.106;2023-11-19T12:05:41;10.73;;;2.03;;
12725;SDS011;6427;49.754;6.106;2023-11-19T12:08:09;6.63;;;1.20;;
12725;SDS011;6427;49.754;6.106;2023-11-19T12:10:45;9.50;;;1.90;;
12725;SDS011;6427;49.754;6.106;2023-11-19T12:13:13;10.82;;;2.37;;
12725;SDS011;6427;49.754;6.106;2023-11-19T12:18:24;13.47;;;1.67;;
12725;SDS011;6427;49.754;6.106;2023-11-19T12:20:51;9.50;;;2.00;;
12725;SDS011;6427;49.754;6.106;2023-11-19T12:23:19;13.37;;;2.17;;
12725;SDS011;6427;49.754;6.106;2023-11-19T12:25:46;9.93;;;1.70;;
12725;SDS011;6427;49.754;6.106;2023-11-19T12:28:15;11.33;;;1.73;;
12725;SDS011;6427;49.754;6.106;2023-11-19T12:30:43;10.43;;;1.90;;
12725;SDS011;6427;49.754;6.106;2023-11-19T12:33:11;11.10;;;1.80;;
12725;SDS011;6427;49.754;6.106;2023-11-19T12:35:39;10.03;;;2.10;;
12725;SDS011;6427;49.754;6.106;2023-11-19T12:38:06;9.10;;;1.40;;
12725;SDS011;6427;49.754;6.106;2023-11-19T12:40:34;8.97;;;2.27;;
12725;SDS011;6427;49.754;6.106;2023-11-19T12:43:02;9.87;;;1.60;;
12725;SDS011;6427;49.754;6.106;2023-11-19T12:45:35;12.37;;;2.07;;
12725;SDS011;6427;49.754;6.106;2023-11-19T12:48:06;8.57;;;1.40;;
12725;SDS011;6427;49.754;6.106;2023-11-19T12:53:25;8.67;;;1.67;;
12725;SDS011;6427;49.754;6.106;2023-11-19T12:55:53;8.53;;;2.10;;
12725;SDS011;6427;49.754;6.106;2023-11-19T12:58:33;9.43;;;2.17;;
12725;SDS011;6427;49.754;6.106;2023-11-19T13:01:03;10.73;;;2.37;;
12725;SDS011;6427;49.754;6.106;2023-11-19T13:03:31;12.90;;;2.17;;
12725;SDS011;6427;49.754;6.106;2023-11-19T13:06:05;12.80;;;2.70;;
12725;SDS011;6427;49.754;6.106;2023-11-19T13:08:35;15.67;;;3.77;;
12725;SDS011;6427;49.754;6.106;2023-11-19T13:11:03;7.50;;;1.67;;
12725;SDS011;6427;49.754;6.106;2023-11-19T13:13:30;10.97;;;2.13;;
12725;SDS011;6427;49.754;6.106;2023-11-19T13:16:04;13.30;;;2.00;;
12725;SDS011;6427;49.754;6.106;2023-11-19T13:18:32;11.63;;;1.77;;
12725;SDS011;6427;49.754;6.106;2023-11-19T13:21:00;9.90;;;1.90;;
12725;SDS011;6427;49.754;6.106;2023-11-19T13:23:27;9.67;;;2.00;;
12725;SDS011;6427;49.754;6.106;2023-11-19T13:25:56;14.97;;;2.20;;
12725;SDS011;6427;49.754;6.106;2023-11-19T13:28:23;10.97;;;1.67;;
12725;SDS011;6427;49.754;6.106;2023-11-19T13:30:51;12.77;;;2.15;;
12725;SDS011;6427;49.754;6.106;2023-11-19T13:33:19;11.17;;;1.47;;
12725;SDS011;6427;49.754;6.106;2023-11-19T13:35:46;8.00;;;1.83;;
12725;SDS011;6427;49.754;6.106;2023-11-19T13:38:14;12.50;;;2.10;;
12725;SDS011;6427;49.754;6.106;2023-11-19T13:40:41;10.23;;;2.25;;
12725;SDS011;6427;49.754;6.106;2023-11-19T13:43:09;8.13;;;1.60;;
12725;SDS011;6427;49.754;6.106;2023-11-19T13:45:36;12.30;;;1.90;;
12725;SDS011;6427;49.754;6.106;2023-11-19T13:48:04;8.40;;;1.90;;
12725;SDS011;6427;49.754;6.106;2023-11-19T13:50:32;9.10;;;2.03;;
12725;SDS011;6427;49.754;6.106;2023-11-19T13:53:00;13.37;;;2.03;;
12725;SDS011;6427;49.754;6.106;2023-11-19T13:55:28;11.87;;;1.90;;
12725;SDS011;6427;49.754;6.106;2023-11-19T13:57:56;8.52;;;1.92;;
12725;SDS011;6427;49.754;6.106;2023-11-19T14:00:24;9.80;;;1.87;;
12725;SDS011;6427;49.754;6.106;2023-11-19T14:02:52;13.00;;;2.50;;
12725;SDS011;6427;49.754;6.106;2023-11-19T14:05:19;7.90;;;2.47;;
12725;SDS011;6427;49.754;6.106;2023-11-19T14:07:48;10.80;;;1.97;;
12725;SDS011;6427;49.754;6.106;2023-11-19T14:10:15;11.50;;;2.00;;
12725;SDS011;6427;49.754;6.106;2023-11-19T14:12:43;9.07;;;1.50;;
12725;SDS011;6427;49.754;6.106;2023-11-19T14:15:11;7.50;;;2.00;;
12725;SDS011;6427;49.754;6.106;2023-11-19T14:17:41;10.07;;;2.00;;
12725;SDS011;6427;49.754;6.106;2023-11-19T14:20:08;12.60;;;2.10;;
12725;SDS011;6427;49.754;6.106;2023-11-19T14:22:42;8.53;;;1.87;;
12725;SDS011;6427;49.754;6.106;2023-11-19T14:25:10;13.62;;;2.53;;
12725;SDS011;6427;49.754;6.106;2023-11-19T14:27:37;15.27;;;2.45;;
12725;SDS011;6427;49.754;6.106;2023-11-19T14:30:05;7.87;;;1.60;;
12725;SDS011;6427;49.754;6.106;2023-11-19T14:32:36;12.20;;;2.00;;
12725;SDS011;6427;49.754;6.106;2023-11-19T14:35:05;11.00;;;2.20;;
12725;SDS011;6427;49.754;6.106;2023-11-19T14:37:32;8.07;;;1.77;;
12725;SDS011;6427;49.754;6.106;2023-11-19T14:40:00;13.67;;;2.27;;
12725;SDS011;6427;49.754;6.106;2023-11-19T14:42:27;11.43;;;1.63;;
12725;SDS011;6427;49.754;6.106;2023-11-19T14:44:56;7.57;;;1.77;;
12725;SDS011;6427;49.754;6.106;2023-11-19T14:47:23;15.97;;;2.40;;
12725;SDS011;6427;49.754;6.106;2023-11-19T14:49:51;8.77;;;1.83;;
12725;SDS011;6427;49.754;6.106;2023-11-19T14:52:18;9.93;;;1.73;;
12725;SDS011;6427;49.754;6.106;2023-11-19T14:54:46;13.63;;;2.23;;
12725;SDS011;6427;49.754;6.106;2023-11-19T14:57:14;7.97;;;2.17;;
12725;SDS011;6427;49.754;6.106;2023-11-19T14:59:41;9.30;;;2.43;;
12725;SDS011;6427;49.754;6.106;2023-11-19T15:02:09;10.00;;;2.00;;
12725;SDS011;6427;49.754;6.106;2023-11-19T15:04:36;13.20;;;2.00;;
12725;SDS011;6427;49.754;6.106;2023-11-19T15:07:05;12.03;;;2.17;;
12725;SDS011;6427;49.754;6.106;2023-11-19T15:09:32;12.80;;;1.73;;
12725;SDS011;6427;49.754;6.106;2023-11-19T15:12:00;9.03;;;1.80;;
12725;SDS011;6427;49.754;6.106;2023-11-19T15:14:28;14.43;;;2.03;;
12725;SDS011;6427;49.754;6.106;2023-11-19T15:16:55;11.70;;;2.07;;
12725;SDS011;6427;49.754;6.106;2023-11-19T15:19:23;11.27;;;2.27;;
12725;SDS011;6427;49.754;6.106;2023-11-19T15:21:50;15.52;;;2.60;;